createdAt,value
2023-02-11T00:00:50.609Z,134.20
2023-02-11T00:03:26.046Z,123.00
2023-02-11T00:05:53.632Z,110.80
2023-02-11T00:08:21.177Z,90.50
2023-02-11T00:10:49.070Z,86.60
2023-02-11T00:13:16.763Z,72.30
2023-02-11T00:15:44.385Z,74.10
2023-02-11T00:18:11.906Z,82.10
2023-02-11T00:20:39.436Z,70.30
2023-02-11T00:23:07.047Z,87.00
2023-02-11T00:25:34.716Z,109.30
2023-02-11T00:28:02.229Z,112.10
2023-02-11T00:30:30.208Z,126.90
2023-02-11T00:32:57.764Z,123.80
2023-02-11T00:35:25.246Z,114.80
2023-02-11T00:37:52.935Z,118.50
2023-02-11T00:40:20.564Z,138.00
2023-02-11T00:42:48.071Z,122.30
2023-02-11T00:45:15.614Z,138.50
2023-02-11T00:47:43.389Z,122.90
2023-02-11T00:50:10.896Z,79.40
2023-02-11T00:52:38.529Z,91.40
2023-02-11T00:55:06.089Z,87.80
2023-02-11T00:57:33.697Z,86.90
2023-02-11T01:00:01.181Z,83.70
2023-02-11T01:02:28.966Z,86.20
2023-02-11T01:04:56.512Z,82.10
2023-02-11T01:07:24.044Z,84.00
2023-02-11T01:09:51.916Z,80.70
2023-02-11T01:12:19.442Z,71.90
2023-02-11T01:14:46.940Z,69.00
2023-02-11T01:17:14.769Z,77.90
2023-02-11T01:19:42.241Z,79.80
2023-02-11T01:22:09.712Z,69.00
2023-02-11T01:24:37.398Z,69.80
2023-02-11T01:27:04.871Z,70.40
2023-02-11T01:29:32.415Z,69.90
2023-02-11T01:32:00.294Z,85.50
2023-02-11T01:34:27.929Z,80.00
2023-02-11T01:36:58.157Z,75.20
2023-02-11T01:39:25.962Z,82.50
2023-02-11T01:41:53.549Z,96.40
2023-02-11T01:44:21.062Z,87.60
2023-02-11T01:46:48.632Z,90.20
2023-02-11T01:49:16.253Z,91.00
2023-02-11T01:51:43.846Z,101.10
2023-02-11T01:54:30.309Z,103.10
2023-02-11T01:57:16.575Z,91.00
2023-02-11T01:59:44.247Z,97.60
2023-02-11T02:02:11.789Z,112.00
2023-02-11T02:04:39.265Z,104.70
2023-02-11T02:07:07.125Z,103.70
2023-02-11T02:09:34.705Z,91.00
2023-02-11T02:12:02.209Z,98.40
2023-02-11T02:14:29.758Z,95.50
2023-02-11T02:16:57.274Z,101.30
2023-02-11T02:19:24.750Z,85.70
2023-02-11T02:21:52.234Z,90.90
2023-02-11T02:24:19.851Z,106.90
2023-02-11T02:26:47.692Z,81.50
2023-02-11T02:29:15.312Z,77.30
2023-02-11T02:31:42.993Z,79.90
2023-02-11T02:34:10.805Z,87.10
2023-02-11T02:36:38.376Z,82.10
2023-02-11T02:39:05.870Z,82.80
2023-02-11T02:41:33.729Z,74.70
2023-02-11T02:44:01.333Z,63.80
2023-02-11T02:46:28.949Z,63.40
2023-02-11T02:48:56.769Z,60.50
2023-02-11T02:51:24.365Z,50.70
2023-02-11T02:53:51.869Z,53.70
2023-02-11T02:56:19.394Z,42.50
2023-02-11T02:58:47.403Z,48.20
2023-02-11T03:01:15.172Z,50.10
2023-02-11T03:03:43.342Z,42.10
2023-02-11T03:06:11.057Z,33.60
2023-02-11T03:08:38.544Z,39.80
2023-02-11T03:11:06.061Z,45.90
2023-02-11T03:13:34.056Z,54.40
2023-02-11T03:16:01.649Z,42.40
2023-02-11T03:18:29.350Z,52.80
2023-02-11T03:20:57.478Z,45.80
2023-02-11T03:23:25.026Z,45.60
2023-02-11T03:25:52.676Z,56.60
2023-02-11T03:28:20.301Z,47.20
2023-02-11T03:30:48.051Z,58.90
2023-02-11T03:33:15.660Z,46.40
2023-02-11T03:35:43.326Z,48.90
2023-02-11T03:38:10.900Z,18.70
2023-02-11T03:40:38.353Z,44.10
2023-02-11T03:43:06.096Z,52.60
2023-02-11T03:45:33.685Z,52.80
2023-02-11T03:48:01.305Z,47.00
2023-02-11T03:50:28.874Z,32.70
2023-02-11T03:52:56.868Z,54.00
2023-02-11T03:55:25.954Z,48.80
2023-02-11T03:57:53.484Z,53.00
2023-02-11T04:00:20.975Z,51.00
2023-02-11T04:02:48.656Z,54.20
2023-02-11T04:05:16.288Z,47.80
2023-02-11T04:07:43.798Z,27.70
2023-02-11T04:10:11.265Z,59.50
2023-02-11T04:12:38.876Z,58.40
2023-02-11T04:15:06.348Z,60.10
2023-02-11T04:17:33.989Z,39.30
2023-02-11T04:20:01.677Z,16.70
2023-02-11T04:22:29.176Z,27.30
2023-02-11T04:24:56.686Z,54.80
2023-02-11T04:27:24.326Z,30.80
2023-02-11T04:29:51.854Z,50.70
2023-02-11T04:32:19.416Z,46.30
2023-02-11T04:34:47.609Z,52.60
2023-02-11T04:37:15.079Z,60.30
2023-02-11T04:39:42.579Z,43.50
2023-02-11T04:42:10.123Z,40.10
2023-02-11T04:44:37.725Z,42.50
2023-02-11T04:47:05.374Z,32.80
2023-02-11T04:49:32.882Z,38.90
2023-02-11T04:52:00.416Z,33.20
2023-02-11T04:54:27.884Z,21.70
2023-02-11T04:56:55.640Z,23.10
2023-02-11T04:59:23.198Z,35.70
2023-02-11T05:01:50.729Z,29.80
2023-02-11T05:04:18.341Z,33.20
2023-02-11T05:06:46.050Z,35.00
2023-02-11T05:09:13.582Z,37.20
2023-02-11T05:11:41.088Z,35.80
2023-02-11T05:14:08.579Z,22.90
2023-02-11T05:16:36.129Z,39.90
2023-02-11T05:19:03.814Z,50.60
2023-02-11T05:21:31.300Z,42.40
2023-02-11T05:23:58.877Z,55.00
2023-02-11T05:26:26.821Z,52.20
2023-02-11T05:28:54.441Z,47.50
2023-02-11T05:31:22.178Z,51.10
2023-02-11T05:33:49.762Z,52.90
2023-02-11T05:36:17.305Z,51.90
2023-02-11T05:38:44.850Z,51.00
2023-02-11T05:41:12.616Z,51.10
2023-02-11T05:43:40.220Z,48.10
2023-02-11T05:46:08.037Z,15.50
2023-02-11T05:48:35.664Z,48.60
2023-02-11T05:51:03.134Z,45.60
2023-02-11T05:53:30.776Z,46.90
2023-02-11T05:55:58.377Z,44.90
2023-02-11T05:58:25.871Z,97.10
2023-02-11T06:00:56.148Z,108.50
2023-02-11T06:03:23.754Z,120.20
2023-02-11T06:05:51.553Z,38.70
2023-02-11T06:08:19.245Z,31.80
2023-02-11T06:10:46.778Z,50.90
2023-02-11T06:13:14.348Z,54.00
2023-02-11T06:15:41.996Z,47.80
2023-02-11T06:18:09.942Z,56.80
2023-02-11T06:20:40.778Z,52.10
2023-02-11T06:23:08.525Z,45.70
2023-02-11T06:25:36.043Z,52.90
2023-02-11T06:28:04.000Z,58.10
2023-02-11T06:30:31.570Z,71.40
2023-02-11T06:32:59.098Z,73.60
2023-02-11T06:35:26.778Z,72.20
2023-02-11T06:37:54.671Z,94.20
2023-02-11T06:40:22.412Z,88.90
2023-02-11T06:42:49.950Z,83.80
2023-02-11T06:45:17.596Z,70.10
2023-02-11T06:47:45.653Z,42.50
2023-02-11T06:50:13.233Z,72.30
2023-02-11T06:52:40.794Z,71.70
2023-02-11T06:55:08.429Z,91.70
2023-02-11T06:57:35.924Z,73.90
2023-02-11T07:00:05.353Z,33.30
2023-02-11T07:02:33.372Z,74.10
2023-02-11T07:05:01.191Z,90.10
2023-02-11T07:07:28.680Z,78.90
2023-02-11T07:09:56.341Z,90.30
2023-02-11T07:12:23.877Z,102.80
2023-02-11T07:14:51.396Z,67.70
2023-02-11T07:17:18.926Z,56.50
2023-02-11T07:19:46.465Z,58.10
2023-02-11T07:22:13.947Z,52.50
2023-02-11T07:24:41.446Z,78.50
2023-02-11T07:27:09.045Z,82.80
2023-02-11T07:29:36.590Z,88.70
2023-02-11T07:32:04.424Z,66.70
2023-02-11T07:34:32.198Z,97.20
2023-02-11T07:36:59.751Z,75.40
2023-02-11T07:39:27.593Z,87.60
2023-02-11T07:41:55.278Z,86.10
2023-02-11T07:44:22.753Z,37.10
2023-02-11T07:46:50.465Z,87.60
2023-02-11T07:49:18.308Z,81.70
2023-02-11T07:51:47.184Z,108.40
2023-02-11T07:54:14.757Z,96.50
2023-02-11T07:56:42.284Z,78.10
2023-02-11T07:59:09.821Z,39.80
2023-02-11T08:01:37.329Z,54.00
2023-02-11T08:04:04.992Z,27.30
2023-02-11T08:06:32.714Z,58.90
2023-02-11T08:09:00.211Z,73.30
2023-02-11T08:11:27.699Z,73.10
2023-02-11T08:13:55.226Z,60.50
2023-02-11T08:16:22.941Z,64.70
2023-02-11T08:18:50.507Z,83.20
2023-02-11T08:21:18.002Z,93.20
2023-02-11T08:23:45.518Z,73.20
2023-02-11T08:26:13.275Z,74.90
2023-02-11T08:28:40.800Z,63.80
2023-02-11T08:31:08.465Z,66.50
2023-02-11T08:33:36.157Z,43.50
2023-02-11T08:36:03.800Z,43.60
2023-02-11T08:38:31.408Z,47.70
2023-02-11T08:40:58.865Z,50.10
2023-02-11T08:43:26.402Z,38.30
2023-02-11T08:45:54.271Z,56.70
2023-02-11T08:48:21.860Z,72.10
2023-02-11T08:50:49.537Z,76.90
2023-02-11T08:53:17.072Z,82.70
2023-02-11T08:55:44.550Z,63.40
2023-02-11T08:58:12.005Z,42.10
2023-02-11T09:00:39.502Z,20.10
2023-02-11T09:03:06.955Z,16.70
2023-02-11T09:05:34.449Z,15.10
2023-02-11T09:08:01.942Z,13.00
2023-02-11T09:10:29.390Z,13.00
2023-02-11T09:12:56.858Z,13.60
2023-02-11T09:15:24.523Z,11.60
2023-02-11T09:17:51.985Z,12.80
2023-02-11T09:20:19.500Z,11.60
2023-02-11T09:22:47.094Z,8.80
2023-02-11T09:25:14.570Z,9.60
2023-02-11T09:27:42.048Z,9.50
2023-02-11T09:30:09.632Z,14.50
2023-02-11T09:32:37.159Z,13.10
2023-02-11T09:35:04.650Z,14.00
2023-02-11T09:37:32.206Z,12.30
2023-02-11T09:39:59.664Z,19.30
2023-02-11T09:42:27.236Z,11.60
2023-02-11T09:44:54.851Z,12.70
2023-02-11T09:47:22.369Z,8.80
2023-02-11T09:49:49.934Z,10.30
2023-02-11T09:52:17.866Z,12.40
2023-02-11T09:54:45.369Z,14.60
2023-02-11T09:57:27.725Z,18.10
2023-02-11T09:59:56.101Z,13.80
2023-02-11T10:02:23.614Z,12.90
2023-02-11T10:04:51.367Z,14.60
2023-02-11T10:07:18.888Z,16.00
2023-02-11T10:09:46.364Z,13.00
2023-02-11T10:12:13.840Z,18.90
2023-02-11T10:14:41.492Z,18.00
2023-02-11T10:17:09.077Z,13.40
2023-02-11T10:19:36.665Z,19.90
2023-02-11T10:22:04.179Z,17.30
2023-02-11T10:24:31.646Z,14.50
2023-02-11T10:26:59.216Z,17.80
2023-02-11T10:29:26.940Z,15.80
2023-02-11T10:31:56.568Z,17.30
2023-02-11T10:34:25.950Z,16.00
2023-02-11T10:36:53.641Z,15.60
2023-02-11T10:39:21.257Z,14.50
2023-02-11T10:41:48.707Z,15.70
2023-02-11T10:44:16.329Z,14.40
2023-02-11T10:46:43.926Z,12.80
2023-02-11T10:49:11.680Z,15.70
2023-02-11T10:51:39.258Z,16.20
2023-02-11T10:54:08.292Z,16.00
2023-02-11T10:56:35.764Z,11.00
2023-02-11T10:59:03.555Z,17.70
2023-02-11T11:01:31.049Z,17.00
2023-02-11T11:04:00.043Z,15.90
2023-02-11T11:06:27.693Z,13.60
2023-02-11T11:08:55.320Z,12.50
2023-02-11T11:11:22.892Z,11.10
2023-02-11T11:13:50.444Z,15.60
2023-02-11T11:16:18.247Z,18.50
2023-02-11T11:18:45.815Z,15.30
2023-02-11T11:21:13.438Z,18.90
2023-02-11T11:23:41.037Z,19.90
2023-02-11T11:26:08.561Z,13.10
2023-02-11T11:28:38.837Z,19.60
2023-02-11T11:31:06.665Z,15.30
2023-02-11T11:33:34.390Z,17.90
2023-02-11T11:36:02.089Z,14.00
2023-02-11T11:38:29.560Z,16.40
2023-02-11T11:40:57.037Z,19.40
2023-02-11T11:43:24.703Z,17.60
2023-02-11T11:45:52.193Z,17.10
2023-02-11T11:48:19.947Z,14.80
2023-02-11T11:50:47.642Z,12.60
2023-02-11T11:53:15.444Z,12.40
2023-02-11T11:55:43.231Z,15.20
2023-02-11T11:58:10.887Z,13.80
2023-02-11T12:00:38.374Z,18.10
2023-02-11T12:03:06.042Z,16.30
2023-02-11T12:05:33.696Z,18.30
2023-02-11T12:08:02.043Z,18.00
2023-02-11T12:10:29.515Z,18.40
2023-02-11T12:12:57.105Z,17.80
2023-02-11T12:15:24.791Z,14.70
2023-02-11T12:17:52.396Z,12.40
2023-02-11T12:20:19.931Z,18.50
2023-02-11T12:22:47.456Z,14.00
2023-02-11T12:25:15.016Z,20.10
2023-02-11T12:27:42.627Z,18.60
2023-02-11T12:30:10.166Z,19.00
2023-02-11T12:32:37.752Z,17.80
2023-02-11T12:35:05.341Z,22.10
2023-02-11T12:37:32.857Z,18.00
2023-02-11T12:40:00.328Z,19.00
2023-02-11T12:42:46.636Z,16.00
2023-02-11T12:45:14.591Z,15.80
2023-02-11T12:47:42.375Z,19.00
2023-02-11T12:50:10.016Z,13.10
2023-02-11T12:52:37.536Z,15.40
2023-02-11T12:55:06.035Z,15.20
2023-02-11T12:57:33.884Z,18.80
2023-02-11T13:00:01.363Z,12.20
2023-02-11T13:02:29.175Z,19.40
2023-02-11T13:04:57.017Z,16.40
2023-02-11T13:07:24.577Z,18.40
2023-02-11T13:09:52.031Z,17.90
2023-02-11T13:12:38.518Z,21.40
2023-02-11T13:15:06.240Z,19.60
2023-02-11T13:17:34.351Z,19.70
2023-02-11T13:20:01.923Z,15.50
2023-02-11T13:22:29.450Z,18.00
2023-02-11T13:24:57.026Z,21.90
2023-02-11T13:27:24.639Z,15.00
2023-02-11T13:29:52.104Z,15.40
2023-02-11T13:32:19.695Z,15.70
2023-02-11T13:34:47.450Z,17.30
2023-02-11T13:37:15.218Z,20.10
2023-02-11T13:39:42.980Z,19.70
2023-02-11T13:42:10.721Z,18.50
2023-02-11T13:44:38.508Z,16.30
2023-02-11T13:47:06.382Z,18.50
2023-02-11T13:49:34.165Z,20.20
2023-02-11T13:52:01.939Z,21.70
2023-02-11T13:54:29.493Z,15.80
2023-02-11T13:56:57.045Z,18.00
2023-02-11T13:59:27.707Z,20.20
2023-02-11T14:02:14.401Z,22.00
2023-02-11T14:05:00.728Z,22.60
2023-02-11T14:07:47.200Z,22.60
2023-02-11T14:10:14.648Z,22.90
2023-02-11T14:12:42.522Z,19.70
2023-02-11T14:15:10.320Z,23.70
2023-02-11T14:17:38.103Z,17.70
2023-02-11T14:20:05.788Z,20.20
2023-02-11T14:22:33.449Z,17.20
2023-02-11T14:25:01.274Z,21.20
2023-02-11T14:27:28.837Z,23.10
2023-02-11T14:29:56.470Z,19.30
2023-02-11T14:32:24.408Z,21.00
2023-02-11T14:34:52.101Z,19.30
2023-02-11T14:37:19.606Z,15.30
2023-02-11T14:39:47.152Z,16.90
2023-02-11T14:42:14.644Z,18.90
2023-02-11T14:44:42.136Z,22.70
2023-02-11T14:47:09.795Z,22.50
2023-02-11T14:49:37.320Z,22.10
2023-02-11T14:52:04.977Z,22.10
2023-02-11T14:54:32.604Z,26.70
2023-02-11T14:57:00.081Z,23.30
2023-02-11T14:59:27.760Z,31.70
2023-02-11T15:01:55.995Z,26.30
2023-02-11T15:04:23.722Z,17.50
2023-02-11T15:06:51.479Z,17.40
2023-02-11T15:09:19.000Z,19.10
2023-02-11T15:11:46.731Z,24.30
2023-02-11T15:14:14.243Z,26.50
2023-02-11T15:16:41.737Z,23.20
2023-02-11T15:19:09.258Z,24.70
2023-02-11T15:21:37.123Z,23.20
2023-02-11T15:24:06.260Z,23.20
2023-02-11T15:26:34.116Z,26.80
2023-02-11T15:29:02.026Z,28.50
2023-02-11T15:31:32.514Z,24.20
2023-02-11T15:34:02.446Z,23.80
2023-02-11T15:36:33.083Z,20.90
2023-02-11T15:39:00.572Z,23.90
2023-02-11T15:41:28.478Z,22.80
2023-02-11T15:43:56.268Z,21.50
2023-02-11T15:46:24.110Z,20.20
2023-02-11T15:48:51.809Z,20.40
2023-02-11T15:51:20.990Z,21.20
2023-02-11T15:53:48.479Z,20.90
2023-02-11T15:56:16.064Z,20.40
2023-02-11T15:58:43.633Z,22.20
2023-02-11T16:01:11.213Z,20.90
2023-02-11T16:03:38.960Z,19.10
2023-02-11T16:06:06.599Z,19.90
2023-02-11T16:08:35.445Z,17.20
2023-02-11T16:11:03.518Z,22.70
2023-02-11T16:13:33.794Z,21.00
2023-02-11T16:16:02.645Z,24.20
2023-02-11T16:18:37.673Z,27.80
2023-02-11T16:21:06.337Z,28.10
2023-02-11T16:23:33.862Z,26.50
2023-02-11T16:26:01.748Z,29.30
2023-02-11T16:28:29.795Z,30.40
2023-02-11T16:30:59.312Z,42.60
2023-02-11T16:33:29.050Z,30.30
2023-02-11T16:35:58.018Z,26.40
2023-02-11T16:38:25.784Z,62.80
2023-02-11T16:40:53.843Z,39.80
2023-02-11T16:43:21.597Z,26.50
2023-02-11T16:45:49.590Z,21.50
2023-02-11T16:48:18.364Z,25.20
2023-02-11T16:50:46.685Z,21.00
2023-02-11T16:53:14.905Z,24.60
2023-02-11T16:55:42.681Z,20.80
2023-02-11T16:58:10.260Z,27.50
2023-02-11T17:00:37.892Z,24.10
2023-02-11T17:03:05.683Z,17.80
2023-02-11T17:05:45.760Z,29.20
2023-02-11T17:08:20.920Z,22.60
2023-02-11T17:10:48.841Z,22.60
2023-02-11T17:13:16.686Z,28.00
2023-02-11T17:15:44.445Z,22.30
2023-02-11T17:18:11.960Z,25.60
2023-02-11T17:20:39.666Z,24.70
2023-02-11T17:23:07.409Z,25.00
2023-02-11T17:25:37.442Z,27.40
2023-02-11T17:28:05.189Z,20.70
2023-02-11T17:30:33.120Z,24.30
2023-02-11T17:33:00.872Z,42.00
2023-02-11T17:35:28.468Z,113.60
2023-02-11T17:37:56.470Z,55.80
2023-02-11T17:40:24.395Z,34.10
2023-02-11T17:42:51.904Z,46.40
2023-02-11T17:45:22.183Z,39.40
2023-02-11T17:47:50.025Z,34.10
2023-02-11T17:50:17.567Z,33.70
2023-02-11T17:52:45.525Z,22.60
2023-02-11T17:55:13.417Z,27.60
2023-02-11T17:57:41.314Z,31.10
2023-02-11T18:00:09.206Z,31.40
2023-02-11T18:02:36.993Z,35.20
2023-02-11T18:05:05.536Z,30.20
2023-02-11T18:07:33.375Z,33.30
2023-02-11T18:10:01.093Z,34.80
2023-02-11T18:12:28.700Z,30.40
2023-02-11T18:14:58.172Z,26.80
2023-02-11T18:17:25.836Z,26.00
2023-02-11T18:19:53.347Z,23.40
2023-02-11T18:22:21.059Z,27.30
2023-02-11T18:24:48.714Z,46.90
2023-02-11T18:27:16.358Z,36.40
2023-02-11T18:29:44.462Z,35.60
2023-02-11T18:32:12.234Z,24.40
2023-02-11T18:34:39.787Z,23.70
2023-02-11T18:37:07.444Z,28.00
2023-02-11T18:39:34.922Z,34.40
2023-02-11T18:42:02.617Z,30.30
2023-02-11T18:44:30.431Z,23.60
2023-02-11T18:46:57.975Z,25.20
2023-02-11T18:49:25.682Z,34.20
2023-02-11T18:51:53.230Z,24.30
2023-02-11T18:54:23.746Z,26.50
2023-02-11T18:56:51.314Z,27.50
2023-02-11T18:59:19.102Z,22.80
2023-02-11T19:01:47.158Z,18.80
2023-02-11T19:04:20.104Z,20.70
2023-02-11T19:06:47.955Z,16.80
2023-02-11T19:09:15.836Z,20.10
2023-02-11T19:11:54.597Z,36.70
2023-02-11T19:14:22.474Z,26.60
2023-02-11T19:16:51.452Z,45.80
2023-02-11T19:19:19.526Z,32.70
2023-02-11T19:21:47.804Z,28.60
2023-02-11T19:24:24.409Z,21.50
2023-02-11T19:26:52.282Z,27.10
2023-02-11T19:29:20.036Z,45.30
2023-02-11T19:31:48.121Z,30.90
2023-02-11T19:34:16.812Z,25.00
2023-02-11T19:36:44.527Z,21.20
2023-02-11T19:39:12.507Z,26.20
2023-02-11T19:41:39.965Z,24.70
2023-02-11T19:44:08.024Z,24.60
2023-02-11T19:46:36.067Z,19.90
2023-02-11T19:49:03.651Z,22.50
2023-02-11T19:51:32.755Z,20.80
2023-02-11T19:54:00.470Z,19.50
2023-02-11T19:56:31.305Z,22.80
2023-02-11T19:58:58.882Z,31.90
2023-02-11T20:01:26.490Z,30.10
2023-02-11T20:03:54.355Z,35.60
2023-02-11T20:06:23.605Z,27.70
2023-02-11T20:08:51.452Z,28.60
2023-02-11T20:11:19.631Z,23.20
2023-02-11T20:13:47.204Z,24.70
2023-02-11T20:16:16.990Z,30.80
2023-02-11T20:18:44.595Z,22.10
2023-02-11T20:21:12.165Z,19.10
2023-02-11T20:23:40.717Z,22.00
2023-02-11T20:26:08.240Z,27.50
2023-02-11T20:28:36.140Z,32.70
2023-02-11T20:31:03.942Z,43.60
2023-02-11T20:33:31.915Z,27.10
2023-02-11T20:35:59.757Z,23.60
2023-02-11T20:38:27.340Z,24.00
2023-02-11T20:40:55.128Z,20.10
2023-02-11T20:43:22.968Z,20.20
2023-02-11T20:45:50.814Z,24.90
2023-02-11T20:48:18.653Z,28.30
2023-02-11T20:50:48.320Z,31.00
2023-02-11T20:53:16.027Z,26.60
2023-02-11T20:55:43.773Z,42.90
2023-02-11T20:58:11.652Z,39.90
2023-02-11T21:00:39.860Z,33.80
2023-02-11T21:03:07.522Z,41.20
2023-02-11T21:05:36.067Z,27.20
2023-02-11T21:08:05.779Z,31.30
2023-02-11T21:10:33.309Z,26.90
2023-02-11T21:13:03.012Z,21.10
2023-02-11T21:15:30.641Z,18.20
2023-02-11T21:17:58.377Z,21.60
2023-02-11T21:20:25.996Z,22.60
2023-02-11T21:22:53.762Z,21.60
2023-02-11T21:25:22.505Z,23.30
2023-02-11T21:27:50.294Z,21.90
2023-02-11T21:30:18.276Z,29.30
2023-02-11T21:32:46.151Z,28.00
2023-02-11T21:35:14.735Z,28.50
2023-02-11T21:37:42.363Z,34.40
2023-02-11T21:40:09.977Z,28.90
2023-02-11T21:42:37.514Z,27.20
2023-02-11T21:45:05.136Z,23.00
2023-02-11T21:47:32.860Z,27.80
2023-02-11T21:50:00.360Z,25.90
2023-02-11T21:52:27.941Z,22.40
2023-02-11T21:54:55.542Z,32.10
2023-02-11T21:57:23.284Z,28.00
2023-02-11T21:59:52.949Z,27.00
2023-02-11T22:02:20.479Z,29.40
2023-02-11T22:04:48.250Z,22.00
2023-02-11T22:07:15.957Z,28.80
2023-02-11T22:09:43.719Z,33.40
2023-02-11T22:12:11.280Z,38.00
2023-02-11T22:14:38.930Z,32.00
2023-02-11T22:17:06.586Z,22.30
2023-02-11T22:19:34.342Z,22.50
2023-02-11T22:22:02.190Z,19.00
2023-02-11T22:24:29.797Z,19.10
2023-02-11T22:26:57.322Z,17.40
2023-02-11T22:29:24.858Z,16.90
2023-02-11T22:31:52.335Z,16.60
2023-02-11T22:34:20.189Z,19.90
2023-02-11T22:36:47.853Z,16.20
2023-02-11T22:39:15.346Z,10.00
2023-02-11T22:41:42.857Z,9.20
2023-02-11T22:44:10.417Z,10.40
2023-02-11T22:46:37.945Z,13.20
2023-02-11T22:49:05.537Z,11.10
2023-02-11T22:51:33.170Z,12.70
2023-02-11T22:54:00.684Z,12.90
2023-02-11T22:56:28.254Z,16.40
2023-02-11T22:58:55.801Z,14.50
2023-02-11T23:01:23.295Z,15.40
2023-02-11T23:03:50.928Z,16.10
2023-02-11T23:06:18.549Z,13.80
2023-02-11T23:08:46.044Z,13.90
2023-02-11T23:11:13.565Z,10.90
2023-02-11T23:13:41.115Z,10.20
2023-02-11T23:16:08.846Z,10.70
2023-02-11T23:18:36.837Z,11.90
2023-02-11T23:21:04.767Z,14.00
2023-02-11T23:23:32.241Z,13.40
2023-02-11T23:25:59.773Z,14.90
2023-02-11T23:28:27.360Z,11.90
2023-02-11T23:30:55.033Z,12.70
2023-02-11T23:33:22.609Z,10.10
2023-02-11T23:35:50.398Z,9.90
2023-02-11T23:38:18.043Z,9.50
2023-02-11T23:40:45.705Z,11.10
2023-02-11T23:43:13.295Z,11.10
2023-02-11T23:45:40.866Z,11.40
2023-02-11T23:48:08.435Z,10.20
2023-02-11T23:50:36.122Z,9.50
2023-02-11T23:53:03.636Z,10.70
2023-02-11T23:55:31.424Z,13.40
2023-02-11T23:57:58.992Z,12.10
